Terminal Aerodrome Forecast (TAF)

TAF

Data at: 0245 UTC 24 Sep 2020

TAF for:NVSC (Sola/Vanua Lava Arpt, --, NV) issued at 2220 UTC 23 Sep 2020
Text:TAF NVSC 232220Z 2318/2418 VRB02KT 9999 SCT020
Forecast period:1800 UTC 23 September 2020 to 1800 UTC 24 September 2020
Forecast type:FROM: standard forecast or significant change
Winds:variable direction winds at 2 MPH (2 knots; 1.0 m/s)
Visibility:6 or more sm (10+ km)
Ceiling:at least 12,000 feet AGL
Clouds: scattered clouds at 2000 feet AGL
Text:PROB30
Forecast period:0000 to 0600 UTC 24 September 2020
Forecast type:TEMPORARY: The following changes expected for less than half the time period
Visibility: 6 sm ( 9 km)
Ceiling:1800 feet AGL
Clouds: broken clouds at 1800 feet AGL
Weather:-SHRA (light rain showers)

TAF

Data at: 0245 UTC 24 Sep 2020

TAF for:NVSG (Longana Arpt, --, NV) issued at 2220 UTC 23 Sep 2020
Text:TAF NVSG 232220Z 2400/2424 VRB02KT 9999 SCT020
Forecast period:0000 UTC 24 September 2020 to 0000 UTC 25 September 2020
Forecast type:FROM: standard forecast or significant change
Winds:variable direction winds at 2 MPH (2 knots; 1.0 m/s)
Visibility:6 or more sm (10+ km)
Ceiling:at least 12,000 feet AGL
Clouds: scattered clouds at 2000 feet AGL

TAF

Data at: 0245 UTC 24 Sep 2020

TAF for:NVSS (Santo/Pekoa Intl, --, NV) issued at 2220 UTC 23 Sep 2020
Text:TAF NVSS 232220Z 2400/2424 12005KT 9999 SCT020
Forecast period:0000 UTC 24 September 2020 to 0000 UTC 25 September 2020
Forecast type:FROM: standard forecast or significant change
Winds:from the ESE (120 degrees) at 6 MPH (5 knots; 2.6 m/s)
Visibility:6 or more sm (10+ km)
Ceiling:at least 12,000 feet AGL
Clouds: scattered clouds at 2000 feet AGL

TAF

Data at: 0245 UTC 24 Sep 2020

TAF for:NVSL (Malekula/Lamap, --, NV) issued at 2220 UTC 23 Sep 2020
Text:TAF NVSL 232220Z 2400/2424 13005KT 9999 SCT020
Forecast period:0000 UTC 24 September 2020 to 0000 UTC 25 September 2020
Forecast type:FROM: standard forecast or significant change
Winds:from the SE (130 degrees) at 6 MPH (5 knots; 2.6 m/s)
Visibility:6 or more sm (10+ km)
Ceiling:at least 12,000 feet AGL
Clouds: scattered clouds at 2000 feet AGL

TAF

Data at: 0245 UTC 24 Sep 2020

TAF for:NVSP (Norsup Arpt, --, NV) issued at 2220 UTC 23 Sep 2020
Text:TAF NVSP 232220Z 2400/2424 14008KT 9999 FEW020
Forecast period:0000 UTC 24 September 2020 to 0000 UTC 25 September 2020
Forecast type:FROM: standard forecast or significant change
Winds:from the SE (140 degrees) at 9 MPH (8 knots; 4.1 m/s)
Visibility:6 or more sm (10+ km)
Ceiling:at least 12,000 feet AGL
Clouds: few clouds at 2000 feet AGL

TAF

Data at: 0245 UTC 24 Sep 2020

TAF for:NVVV (Efate/Bauerfield Int, --, NV) issued at 2220 UTC 23 Sep 2020
Text:TAF NVVV 232220Z 2400/2424 VRB01KT 9999 SCT020
Forecast period:0000 UTC 24 September 2020 to 0000 UTC 25 September 2020
Forecast type:FROM: standard forecast or significant change
Winds:variable direction winds at 1 MPH (1 knots; 0.5 m/s)
Visibility:6 or more sm (10+ km)
Ceiling:at least 12,000 feet AGL
Clouds: scattered clouds at 2000 feet AGL

TAF

Data at: 0245 UTC 24 Sep 2020

TAF for:NVVW (Tanna Arpt, --, NV) issued at 2220 UTC 23 Sep 2020
Text:TAF NVVW 232220Z 2400/2424 VRB01KT 9999 OVC022
Forecast period:0000 UTC 24 September 2020 to 0000 UTC 25 September 2020
Forecast type:FROM: standard forecast or significant change
Winds:variable direction winds at 1 MPH (1 knots; 0.5 m/s)
Visibility:6 or more sm (10+ km)
Ceiling:2200 feet AGL
Clouds: overcast cloud deck at 2200 feet AGL
Text:PROB30
Forecast period:0000 to 0600 UTC 24 September 2020
Forecast type:TEMPORARY: The following changes expected for less than half the time period
Visibility: 5 sm ( 8 km)
Ceiling:1200 feet AGL
Clouds: broken clouds at 1200 feet AGL, overcast cloud deck at 2000 feet AGL
Weather:SHRA (rain showers)

TAF

Data at: 0245 UTC 24 Sep 2020

TAF for:NVVA (Aneityum/Mystery Isl, --, NV) issued at 2220 UTC 23 Sep 2020
Text:TAF NVVA 232220Z 2400/2424 VRB03KT 9999 FEW018 SCT020 BKN040
Forecast period:0000 UTC 24 September 2020 to 0000 UTC 25 September 2020
Forecast type:FROM: standard forecast or significant change
Winds:variable direction winds at 3 MPH (3 knots; 1.5 m/s)
Visibility:6 or more sm (10+ km)
Ceiling:4000 feet AGL
Clouds: few clouds at 1800 feet AGL, scattered clouds at 2000 feet AGL, broken clouds at 4000 feet AGL
Text:INTER 2400/2406 9000 -SHRA BKN018
Forecast period:0000 to 0600 UTC 24 September 2020
Forecast type:TEMPORARY: The following changes expected for less than half the time period
Visibility: 6 sm ( 9 km)
Ceiling:1800 feet AGL
Clouds: broken clouds at 1800 feet AGL
Weather:-SHRA (light rain showers)

TAF

Data at: 0245 UTC 24 Sep 2020

TAF NVVV 232220Z 2400/2424 VRB01KT 9999 SCT020
TAF NVSC 232220Z 2318/2418 VRB02KT 9999 SCT020
  PROB30
  INTER 2400/2406 9000 -SHRA BKN018
TAF NVSG 232220Z 2400/2424 VRB02KT 9999 SCT020
TAF NVSS 232220Z 2400/2424 12005KT 9999 SCT020
TAF NVSL 232220Z 2400/2424 13005KT 9999 SCT020
TAF NVSP 232220Z 2400/2424 14008KT 9999 FEW020
TAF NVVW 232220Z 2400/2424 VRB01KT 9999 OVC022
  PROB30
  INTER 2400/2406 8000 SHRA BKN012 OVC020
TAF NVVA 232220Z 2400/2424 VRB03KT 9999 FEW018 SCT020 BKN040
  INTER 2400/2406 9000 -SHRA BKN018